Cengiz Amca — D5CU4 — position and weather

sailwx.info

Track history (hours):
 
Tides and Currents Weather Stations Pressure Air Temp Water Temp Dewpoint Dewpoint Depression Visibility Wind Speed Wind Dir Waves Ship Positions

Cengiz Amca

Last reported at 2018-Feb-21 22:28 UTC. Time now 2018-Feb-21 22:47 UTC.
Position N 52°28' E 004°36'.

Length 132 m; draft 5.4 m.

Type: Cargo ship. MMSI: 636015783.

Date/timePositionNaut miles runAvg speedWind from/ knotsBaromVisibWave heightAir tempDewpointWater temp
2018-Feb-21 22:28N 52°28' E 004°36'0 0.0
2018-Feb-21 21:55N 52°28' E 004°36'0 0.0
2018-Feb-21 21:25N 52°28' E 004°36'0 0.0
2018-Feb-21 20:58N 52°28' E 004°36'0 0.0
2018-Feb-21 20:28N 52°28' E 004°36'0 0.0
2018-Feb-21 19:58N 52°28' E 004°36'0 0.0
2018-Feb-21 19:22N 52°28' E 004°36'0 0.0
2018-Feb-21 18:58N 52°28' E 004°36'0 0.0
2018-Feb-21 18:22N 52°28' E 004°36'0 0.0
2018-Feb-21 17:58N 52°28' E 004°36'0 0.0
2018-Feb-21 17:25N 52°28' E 004°36'0 0.0
2018-Feb-21 16:58N 52°28' E 004°36'0 0.0
2018-Feb-21 16:25N 52°28' E 004°36'0 0.0
2018-Feb-21 15:55N 52°28' E 004°36'0 0.0
2018-Feb-21 15:28N 52°28' E 004°36'0 0.0
2018-Feb-21 14:58N 52°28' E 004°36'0 0.0
2018-Feb-21 14:28N 52°28' E 004°36'0 0.0
2018-Feb-21 13:58N 52°28' E 004°36'0 0.0
2018-Feb-21 13:28N 52°28' E 004°36'0 0.9
2018-Feb-21 13:01N 52°28' E 004°36'2 4.2
2018-Feb-21 12:31N 52°28' E 004°32'611.3
2018-Feb-21 12:01N 52°29' E 004°23'5 9.2
2018-Feb-21 11:31N 52°28' E 004°16'4 8.8
2018-Feb-21 11:01N 52°29' E 004°08'2 4.6
2018-Feb-21 10:30N 52°27' E 004°05'0 0.2
2018-Feb-21 09:56N 52°27' E 004°06'0 0.1
2018-Feb-21 09:29N 52°27' E 004°06'0 0.0
2018-Feb-21 08:59N 52°27' E 004°06'0 0.0
2018-Feb-21 08:29N 52°27' E 004°06'0 0.0
2018-Feb-21 07:59N 52°27' E 004°06'0 0.0
2018-Feb-21 07:29N 52°27' E 004°06'0 0.0
2018-Feb-21 06:59N 52°27' E 004°06'0 0.0
2018-Feb-21 06:29N 52°27' E 004°06'0 0.0
2018-Feb-21 05:59N 52°27' E 004°06'0 0.0
2018-Feb-21 05:26N 52°27' E 004°06'0 0.1
2018-Feb-21 04:59N 52°27' E 004°06'0 0.2
2018-Feb-21 04:29N 52°27' E 004°05'0 0.1
2018-Feb-21 03:59N 52°27' E 004°05'0 0.0
2018-Feb-21 03:26N 52°27' E 004°05'0 0.1
2018-Feb-21 02:59N 52°27' E 004°05'0 0.0
2018-Feb-21 02:26N 52°27' E 004°05'0 0.0
2018-Feb-21 01:56N 52°27' E 004°05'0 0.0
2018-Feb-21 01:29N 52°27' E 004°05'0 0.0
2018-Feb-21 00:59N 52°27' E 004°05'0 0.0
2018-Feb-21 00:29N 52°27' E 004°05'0 0.0
2018-Feb-20 23:59N 52°27' E 004°05'0 0.0
2018-Feb-20 23:26N 52°27' E 004°05'0 0.0
2018-Feb-20 22:59N 52°27' E 004°05'0 0.0
2018-Feb-20 22:26N 52°27' E 004°05'0 0.0
2018-Feb-20 21:59N 52°27' E 004°05'0 0.0
2018-Feb-20 21:29N 52°27' E 004°05'0 0.0
2018-Feb-20 20:59N 52°27' E 004°05'0 0.3
2018-Feb-20 20:29N 52°27' E 004°05'0 0.1
2018-Feb-20 19:59N 52°27' E 004°06'0 0.0
2018-Feb-20 19:29N 52°27' E 004°06'0 0.0
2018-Feb-20 18:59N 52°27' E 004°06'0 0.0
2018-Feb-20 18:29N 52°27' E 004°06'0 0.0
2018-Feb-20 17:59N 52°27' E 004°06'0 0.0
2018-Feb-20 17:29N 52°27' E 004°06'0 0.0
2018-Feb-20 16:59N 52°27' E 004°06'0 0.0
2018-Feb-20 16:26N 52°27' E 004°06'0 0.1
2018-Feb-20 15:59N 52°27' E 004°05'0 0.1
2018-Feb-20 15:29N 52°27' E 004°05'0 0.1
2018-Feb-20 14:59N 52°27' E 004°05'0 0.1
2018-Feb-20 14:29N 52°27' E 004°05'0 0.0
2018-Feb-20 13:59N 52°27' E 004°05'0 0.0
2018-Feb-20 13:29N 52°27' E 004°05'0 0.0
2018-Feb-20 12:59N 52°27' E 004°05'0 0.0
2018-Feb-20 12:29N 52°27' E 004°05'0 0.0
2018-Feb-20 11:59N 52°27' E 004°05'0 0.0
2018-Feb-20 11:29N 52°27' E 004°05'0 0.0
2018-Feb-20 10:59N 52°27' E 004°05'0 0.1
2018-Feb-20 10:29N 52°27' E 004°06'0 0.2
2018-Feb-20 09:59N 52°27' E 004°06'0 0.1
2018-Feb-20 09:29N 52°27' E 004°06'0 0.0
2018-Feb-20 09:00N 52°27' E 004°06'2 3.1
2018-Feb-20 08:30N 52°28' E 004°03'5 9.2
2018-Feb-20 08:00N 52°27' E 003°56'4 8.1
2018-Feb-20 07:29N 52°27' E 003°49'6 6.5
2018-Feb-20 06:35N 52°26' E 003°39'2 6.4
2018-Feb-20 06:13N 52°25' E 003°36'2 6.2
2018-Feb-20 05:57N 52°24' E 003°33'3 6.6
2018-Feb-20 05:26N 52°22' E 003°29'4 6.9
2018-Feb-20 04:52N 52°19' E 003°25'5 8.3
2018-Feb-20 04:17N 52°16' E 003°19'3 9.7
2018-Feb-20 03:59N 52°14' E 003°16'6 9.7
2018-Feb-20 03:22N 52°09' E 003°09'410.8
2018-Feb-20 03:00N 52°06' E 003°05'610.8
2018-Feb-20 02:29N 52°02' E 002°59'510.2
2018-Feb-20 01:59N 51°58' E 002°53'5 9.7
2018-Feb-20 01:29N 51°55' E 002°48'12 9.0
2018-Feb-20 00:12N 51°46' E 002°35'2 8.6
2018-Feb-20 00:00N 51°45' E 002°34'4 8.4
2018-Feb-19 23:31N 51°42' E 002°30'4 8.3
2018-Feb-19 23:00N 51°38' E 002°25'4 8.0
2018-Feb-19 22:28N 51°35' E 002°21'4 7.9
2018-Feb-19 22:00N 51°32' E 002°18'4 8.0
2018-Feb-19 21:30N 51°29' E 002°14'4 8.2
2018-Feb-19 21:00N 51°25' E 002°10'4 8.6
2018-Feb-19 20:30N 51°23' E 002°05'4 9.0
2018-Feb-19 20:00N 51°20' E 001°59'5 9.4
2018-Feb-19 19:30N 51°16' E 001°54'5 9.7
2018-Feb-19 19:00N 51°13' E 001°49'510.5
2018-Feb-19 18:30N 51°08' E 001°44'611.6
2018-Feb-19 18:00N 51°03' E 001°39'612.1
2018-Feb-19 17:30N 50°59' E 001°33'612.1
2018-Feb-19 16:59N 50°54' E 001°27'3412.2
2018-Feb-19 14:13N 50°28' E 000°52'312.5
2018-Feb-19 13:57N 50°28' E 000°47'1912.8
2018-Feb-19 12:30N 50°22' E 000°19'713.7
2018-Feb-19 12:00N 50°20' E 000°09'714.1
2018-Feb-19 11:30N 50°18' W 000°02'714.4
2018-Feb-19 11:00N 50°15' W 000°13'714.7
2018-Feb-19 10:30N 50°13' W 000°24'914.8
2018-Feb-19 09:54N 50°11' W 000°37'614.9
2018-Feb-19 09:28N 50°10' W 000°47'714.7
2018-Feb-19 09:01N 50°08' W 000°57'714.4
2018-Feb-19 08:31N 50°07' W 001°08'713.7
2018-Feb-19 08:00N 50°05' W 001°19'713.0
2018-Feb-19 07:30N 50°04' W 001°29'612.1
2018-Feb-19 07:00N 50°02' W 001°38'611.2
2018-Feb-19 06:30N 50°01' W 001°46'510.3
2018-Feb-19 06:00N 49°59' W 001°54'5 9.6
2018-Feb-19 05:30N 49°58' W 002°01'4 8.8
2018-Feb-19 05:00N 49°57' W 002°08'4 8.3
2018-Feb-19 04:30N 49°56' W 002°14'4 8.3
2018-Feb-19 04:00N 49°55' W 002°20'4 8.4
2018-Feb-19 03:30N 49°54' W 002°27'4 8.7
2018-Feb-19 03:00N 49°53' W 002°33'4 9.2
2018-Feb-19 02:31N 49°52' W 002°40'5 9.6
2018-Feb-19 02:00N 49°51' W 002°47'510.0
2018-Feb-19 01:30N 49°49' W 002°55'710.6
2018-Feb-19 00:51N 49°45' W 003°04'510.9
2018-Feb-19 00:25N 49°42' W 003°10'511.0
2018-Feb-19 00:00N 49°40' W 003°15'5311.8
2018-Feb-18 19:29N 49°11' W 004°25'1213.1
2018-Feb-18 18:35N 49°06' W 004°41'413.2
2018-Feb-18 18:17N 49°04' W 004°46'713.2
2018-Feb-18 17:47N 49°01' W 004°56'713.3
2018-Feb-18 17:16N 48°58' W 005°05'413.2
2018-Feb-18 16:58N 48°57' W 005°10'813.2
2018-Feb-18 16:20N 48°53' W 005°21'413.1
2018-Feb-18 16:00N 48°50' W 005°27'612.8
2018-Feb-18 15:30N 48°46' W 005°34'612.4
2018-Feb-18 15:00N 48°41' W 005°40'712.5
2018-Feb-18 14:28N 48°36' W 005°46'812.3
2018-Feb-18 13:49N 48°29' W 005°52'612.0
2018-Feb-18 13:20N 48°24' W 005°56'511.6
2018-Feb-18 12:56N 48°19' W 005°58'611.2
2018-Feb-18 12:26N 48°14' W 006°02'510.9
2018-Feb-18 12:00N 48°10' W 006°04'1210.5
2018-Feb-18 10:53N 47°59' W 006°12'41910.2
2018-Feb-16 17:39N 41°16' W 008°49'211.4
2018-Feb-16 17:30N 41°14' W 008°48'510.3
2018-Feb-16 17:00N 41°10' W 008°44'3 5.2
2018-Feb-16 16:30N 41°12' W 008°41'0 0.0
2018-Feb-16 15:57N 41°12' W 008°41'0 0.0
2018-Feb-16 15:27N 41°12' W 008°41'0 0.0
2018-Feb-16 15:00N 41°12' W 008°41'0 0.0
2018-Feb-16 14:30N 41°12' W 008°41'0 0.0
2018-Feb-16 14:00N 41°12' W 008°41'0 0.0
2018-Feb-16 13:24N 41°12' W 008°41'0 0.0
2018-Feb-16 12:57N 41°12' W 008°41'0 0.0
2018-Feb-16 12:30N 41°12' W 008°41'0 0.0
2018-Feb-16 12:00N 41°12' W 008°41'0 0.0
2018-Feb-16 11:30N 41°12' W 008°41'0 0.0
2018-Feb-16 11:00N 41°12' W 008°41'0 0.0
2018-Feb-16 10:30N 41°12' W 008°41'0 0.0
2018-Feb-16 10:00N 41°12' W 008°41'0 0.0
2018-Feb-16 09:30N 41°12' W 008°41'0 0.0
2018-Feb-16 09:00N 41°12' W 008°41'0 0.0
2018-Feb-16 08:30N 41°12' W 008°41'0 0.0
2018-Feb-16 08:00N 41°12' W 008°41'0 0.0
2018-Feb-16 07:30N 41°12' W 008°41'0 0.0
2018-Feb-16 07:00N 41°12' W 008°41'0 0.0
2018-Feb-16 06:30N 41°12' W 008°41'0 0.0
2018-Feb-16 06:00N 41°12' W 008°41'0 0.0
2018-Feb-16 05:30N 41°12' W 008°41'0 0.0
2018-Feb-16 04:54N 41°12' W 008°41'0 0.0
2018-Feb-16 04:30N 41°12' W 008°41'0 0.0
2018-Feb-16 04:00N 41°12' W 008°41'0 0.0
2018-Feb-16 03:30N 41°12' W 008°41'0 0.0
2018-Feb-16 03:00N 41°12' W 008°41'0 0.0
2018-Feb-16 02:30N 41°12' W 008°41'0 0.0
2018-Feb-16 02:00N 41°12' W 008°41'0 0.0
2018-Feb-16 01:30N 41°12' W 008°41'0 0.0
2018-Feb-16 00:57N 41°12' W 008°41'0 0.0
2018-Feb-16 00:30N 41°12' W 008°41'0 0.0
2018-Feb-16 00:00N 41°12' W 008°41'0 0.0
2018-Feb-15 23:30N 41°12' W 008°41'0 0.0
2018-Feb-15 22:57N 41°12' W 008°41'0 0.0
2018-Feb-15 22:30N 41°12' W 008°41'0 0.0
2018-Feb-15 22:00N 41°12' W 008°41'0 0.0
2018-Feb-15 21:21N 41°12' W 008°41'0 0.0
2018-Feb-15 21:00N 41°12' W 008°41'0 0.0
2018-Feb-15 20:30N 41°12' W 008°41'0 0.0
2018-Feb-15 20:00N 41°12' W 008°41'0 0.0
2018-Feb-15 19:30N 41°12' W 008°41'0 0.0
2018-Feb-15 19:00N 41°12' W 008°41'0 0.0
2018-Feb-15 18:27N 41°12' W 008°41'0 0.0
2018-Feb-15 18:00N 41°12' W 008°41'0 0.0
2018-Feb-15 17:27N 41°12' W 008°41'0 0.0
2018-Feb-15 17:00N 41°12' W 008°41'0 0.0
2018-Feb-15 16:30N 41°12' W 008°41'0 0.0
2018-Feb-15 16:00N 41°12' W 008°41'0 0.0
2018-Feb-15 15:30N 41°12' W 008°41'0 0.0
2018-Feb-15 15:00N 41°12' W 008°41'0 0.0
2018-Feb-15 14:30N 41°12' W 008°41'0 0.0
2018-Feb-15 13:57N 41°12' W 008°41'0 0.0
2018-Feb-15 13:30N 41°12' W 008°41'0 0.0
2018-Feb-15 13:00N 41°12' W 008°41'0 0.0
2018-Feb-15 12:30N 41°12' W 008°41'0 0.0
2018-Feb-15 11:57N 41°12' W 008°41'0 0.0
2018-Feb-15 11:30N 41°12' W 008°41'0 0.0
2018-Feb-15 11:00N 41°12' W 008°41'0 0.0
2018-Feb-15 10:30N 41°12' W 008°41'0 0.0
2018-Feb-15 10:00N 41°12' W 008°41'0 0.0
2018-Feb-15 09:30N 41°12' W 008°41'0 0.0
2018-Feb-15 09:00N 41°12' W 008°41'0 0.0
2018-Feb-15 08:30N 41°12' W 008°41'0 0.0
2018-Feb-15 07:57N 41°12' W 008°41'0 0.0
2018-Feb-15 07:30N 41°12' W 008°41'0 0.0
2018-Feb-15 07:00N 41°12' W 008°41'0 0.0
2018-Feb-15 06:24N 41°12' W 008°41'0 0.0
2018-Feb-15 06:00N 41°12' W 008°41'0 0.0
2018-Feb-15 05:30N 41°12' W 008°41'0 0.0
2018-Feb-15 05:00N 41°12' W 008°41'0 0.0
2018-Feb-15 04:30N 41°12' W 008°41'0 0.0
2018-Feb-15 04:00N 41°12' W 008°41'0 0.0
2018-Feb-15 03:30N 41°12' W 008°41'0 0.0
2018-Feb-15 03:00N 41°12' W 008°41'0 0.0
2018-Feb-15 02:30N 41°12' W 008°41'0 0.0
2018-Feb-15 02:00N 41°12' W 008°41'0 0.0
2018-Feb-15 01:30N 41°12' W 008°41'0 0.0
2018-Feb-15 01:00N 41°12' W 008°41'0 0.0
2018-Feb-15 00:30N 41°12' W 008°41'0 0.0
2018-Feb-15 00:00N 41°12' W 008°41'0 0.0
2018-Feb-14 23:30N 41°12' W 008°41'0 0.0
2018-Feb-14 23:00N 41°12' W 008°41'0 0.0
2018-Feb-14 22:30N 41°12' W 008°41'0 0.0
2018-Feb-14 22:00N 41°12' W 008°41'0 0.0
2018-Feb-14 21:30N 41°12' W 008°41'0 0.0
2018-Feb-14 21:00N 41°12' W 008°41'0 0.0
2018-Feb-14 20:30N 41°12' W 008°41'0 0.0
2018-Feb-14 20:00N 41°12' W 008°41'0 0.0
2018-Feb-14 19:27N 41°12' W 008°41'0 0.0
2018-Feb-14 19:00N 41°12' W 008°41'0 0.0
2018-Feb-14 18:30N 41°12' W 008°41'0 0.0
2018-Feb-14 18:00N 41°12' W 008°41'0 0.0
2018-Feb-14 17:30N 41°12' W 008°41'0 0.0
2018-Feb-14 17:00N 41°12' W 008°41'0 0.0
2018-Feb-14 16:30N 41°12' W 008°41'0 0.0
2018-Feb-14 16:00N 41°12' W 008°41'0 0.0
2018-Feb-14 15:30N 41°12' W 008°41'0 0.0
2018-Feb-14 15:00N 41°12' W 008°41'0 0.0
2018-Feb-14 14:27N 41°12' W 008°41'0 0.0
2018-Feb-14 14:00N 41°12' W 008°41'0 0.0
2018-Feb-14 13:30N 41°12' W 008°41'0 0.0
2018-Feb-14 13:00N 41°12' W 008°41'0 0.0
2018-Feb-14 12:30N 41°12' W 008°41'0 0.0
2018-Feb-14 12:00N 41°12' W 008°41'0 0.0
2018-Feb-14 11:30N 41°12' W 008°41'0 0.0
2018-Feb-14 11:00N 41°12' W 008°41'0 0.0
2018-Feb-14 10:30N 41°12' W 008°41'0 0.0
2018-Feb-14 10:00N 41°12' W 008°41'0 0.0
2018-Feb-14 09:30N 41°12' W 008°41'0 0.0
2018-Feb-14 09:00N 41°12' W 008°41'0 0.0
2018-Feb-14 08:30N 41°12' W 008°41'0 0.0
2018-Feb-14 08:00N 41°12' W 008°41'0 0.0
2018-Feb-14 07:30N 41°12' W 008°41'0 0.0
2018-Feb-14 07:00N 41°12' W 008°41'0 0.0
2018-Feb-14 06:30N 41°12' W 008°41'0 0.0
2018-Feb-14 06:00N 41°12' W 008°41'0 0.0
2018-Feb-14 05:30N 41°12' W 008°41'0 0.0
2018-Feb-14 05:00N 41°12' W 008°41'0 0.0
2018-Feb-14 04:30N 41°12' W 008°41'0 0.0
2018-Feb-14 04:00N 41°12' W 008°41'0 0.0
2018-Feb-14 03:30N 41°12' W 008°41'0 0.0
2018-Feb-14 03:00N 41°12' W 008°41'0 0.0
2018-Feb-14 02:27N 41°12' W 008°41'0 0.0
2018-Feb-14 02:00N 41°12' W 008°41'0 0.0
2018-Feb-14 01:30N 41°12' W 008°41'0 0.0
2018-Feb-14 01:00N 41°12' W 008°41'0 0.0
2018-Feb-14 00:30N 41°12' W 008°41'0 0.0
2018-Feb-14 00:00N 41°12' W 008°41'0 0.0
2018-Feb-13 23:30N 41°12' W 008°41'0 0.0
2018-Feb-13 23:00N 41°12' W 008°41'0 0.0
2018-Feb-13 22:30N 41°12' W 008°41'0 0.0
2018-Feb-13 22:00N 41°12' W 008°41'0 0.0
2018-Feb-13 21:30N 41°12' W 008°41'0 0.0
2018-Feb-13 21:00N 41°12' W 008°41'0 0.0
2018-Feb-13 20:30N 41°12' W 008°41'0 0.0
2018-Feb-13 20:00N 41°12' W 008°41'0 0.0
2018-Feb-13 19:30N 41°12' W 008°41'0 0.0
2018-Feb-13 19:00N 41°12' W 008°41'0 0.0
2018-Feb-13 18:30N 41°12' W 008°41'0 0.0
2018-Feb-13 18:00N 41°12' W 008°41'0 0.0
2018-Feb-13 17:30N 41°12' W 008°41'0 0.0
2018-Feb-13 17:00N 41°12' W 008°41'0 0.0
2018-Feb-13 16:30N 41°12' W 008°41'0 0.0
2018-Feb-13 16:00N 41°12' W 008°41'0 0.0
2018-Feb-13 15:30N 41°12' W 008°41'0 0.0
2018-Feb-13 15:00N 41°12' W 008°41'0 0.0
2018-Feb-13 14:30N 41°12' W 008°41'0 0.0
2018-Feb-13 14:00N 41°12' W 008°41'0 0.0
2018-Feb-13 13:30N 41°12' W 008°41'0 0.0
2018-Feb-13 13:00N 41°12' W 008°41'0 0.0
2018-Feb-13 12:30N 41°12' W 008°41'0 0.0
2018-Feb-13 12:00N 41°12' W 008°41'0 0.0
2018-Feb-13 11:30N 41°12' W 008°41'0 0.0
2018-Feb-13 11:00N 41°12' W 008°41'0 0.0
2018-Feb-13 10:30N 41°12' W 008°41'0 0.0
2018-Feb-13 10:00N 41°12' W 008°41'0 0.0
2018-Feb-13 09:30N 41°12' W 008°41'0 0.0
2018-Feb-13 09:00N 41°12' W 008°41'0 0.0
2018-Feb-13 08:30N 41°12' W 008°41'0 0.0
2018-Feb-13 08:00N 41°12' W 008°41'0 0.0
2018-Feb-13 07:30N 41°12' W 008°41'0 0.0
2018-Feb-13 07:00N 41°12' W 008°41'0 0.0
2018-Feb-13 06:30N 41°12' W 008°41'0 0.0
2018-Feb-13 06:00N 41°12' W 008°41'0 0.0
2018-Feb-13 05:30N 41°12' W 008°41'0 0.0
2018-Feb-13 05:00N 41°12' W 008°41'0 0.0
2018-Feb-13 04:30N 41°12' W 008°41'0 0.0
2018-Feb-13 04:00N 41°12' W 008°41'0 0.0
2018-Feb-13 03:30N 41°12' W 008°41'0 0.0
2018-Feb-13 03:00N 41°12' W 008°41'0 0.0
2018-Feb-13 02:30N 41°12' W 008°41'0 0.0
2018-Feb-13 02:00N 41°12' W 008°41'0 0.0
2018-Feb-13 01:30N 41°12' W 008°41'0 0.0
2018-Feb-13 01:00N 41°12' W 008°41'0 0.0
2018-Feb-13 00:30N 41°12' W 008°41'0 0.0
2018-Feb-13 00:00N 41°12' W 008°41'0 0.0
2018-Feb-12 23:30N 41°12' W 008°41'0 0.0
2018-Feb-12 23:00N 41°12' W 008°41'0 0.0
2018-Feb-12 22:30N 41°12' W 008°41'0 0.0
2018-Feb-12 22:00N 41°12' W 008°41'0 0.0
2018-Feb-12 21:30N 41°12' W 008°41'0 0.0
2018-Feb-12 21:00N 41°12' W 008°41'0 0.0
2018-Feb-12 20:30N 41°12' W 008°41'0 0.0
2018-Feb-12 20:00N 41°12' W 008°41'0 0.0
2018-Feb-12 19:30N 41°12' W 008°41'0 0.0
2018-Feb-12 19:00N 41°12' W 008°41'0 0.0
2018-Feb-12 18:30N 41°12' W 008°41'0 0.0
2018-Feb-12 18:00N 41°12' W 008°41'0 0.0
2018-Feb-12 17:30N 41°12' W 008°41'0 0.0
2018-Feb-12 17:00N 41°12' W 008°41'0 0.0
2018-Feb-12 16:27N 41°12' W 008°41'0 0.0
2018-Feb-12 16:00N 41°12' W 008°41'0 0.0
2018-Feb-12 15:18N 41°12' W 008°41'0 0.0
2018-Feb-12 15:00N 41°12' W 008°41'0 0.0
2018-Feb-12 14:30N 41°12' W 008°41'0 0.0
2018-Feb-12 14:00N 41°12' W 008°41'0 0.0
2018-Feb-12 13:30N 41°12' W 008°41'0 0.0
2018-Feb-12 13:00N 41°12' W 008°41'0 0.0
2018-Feb-12 12:30N 41°12' W 008°41'0 0.0
2018-Feb-12 12:00N 41°12' W 008°41'0 0.0
2018-Feb-12 11:30N 41°12' W 008°41'0 0.0
2018-Feb-12 11:00N 41°12' W 008°41'0 0.0
2018-Feb-12 10:30N 41°12' W 008°41'0 0.0
2018-Feb-12 10:00N 41°12' W 008°41'0 0.0
2018-Feb-12 09:30N 41°12' W 008°41'0 0.0
2018-Feb-12 09:00N 41°12' W 008°41'0 0.0
2018-Feb-12 08:30N 41°12' W 008°41'0 0.0
2018-Feb-12 08:00N 41°12' W 008°41'0 0.0
2018-Feb-12 07:30N 41°12' W 008°41'0 0.0
2018-Feb-12 07:00N 41°12' W 008°41'0 0.0
2018-Feb-12 06:30N 41°12' W 008°41'0 0.0
2018-Feb-12 06:00N 41°12' W 008°41'0 0.0
2018-Feb-12 05:30N 41°12' W 008°41'0 0.0
2018-Feb-12 05:00N 41°12' W 008°41'0 0.0
2018-Feb-12 04:30N 41°12' W 008°41'0 0.0
2018-Feb-12 04:00N 41°12' W 008°41'0 0.0
2018-Feb-12 03:30N 41°12' W 008°41'0 0.0
2018-Feb-12 03:00N 41°12' W 008°41'0 0.0
2018-Feb-12 02:30N 41°12' W 008°41'0 0.0
2018-Feb-12 02:00N 41°12' W 008°41'0 0.0
2018-Feb-12 01:30N 41°12' W 008°41'0 0.0
2018-Feb-12 01:00N 41°12' W 008°41'0 0.0
2018-Feb-12 00:30N 41°12' W 008°41'0 0.0
2018-Feb-12 00:00N 41°12' W 008°41'0 0.0
2018-Feb-11 23:30N 41°12' W 008°41'0 0.0
2018-Feb-11 23:00N 41°12' W 008°41'0 0.0
2018-Feb-11 22:30N 41°12' W 008°41'  
Track history (hours):
 
Tides and Currents Weather Stations Pressure Air Temp Water Temp Dewpoint Dewpoint Depression Visibility Wind Speed Wind Dir Waves Ship Positions

Cengiz Amca

Last reported at 2018-Feb-21 22:28 UTC. Time now 2018-Feb-21 22:47 UTC.
Position N 52°28' E 004°36'.

Length 132 m; draft 5.4 m.

Type: Cargo ship. MMSI: 636015783.

Date/timePositionNaut miles runAvg speedWind from/ knotsBaromVisibWave heightAir tempDewpointWater temp
2018-Feb-21 22:28N 52°28' E 004°36'0 0.0
2018-Feb-21 21:55N 52°28' E 004°36'0 0.0
2018-Feb-21 21:25N 52°28' E 004°36'0 0.0
2018-Feb-21 20:58N 52°28' E 004°36'0 0.0
2018-Feb-21 20:28N 52°28' E 004°36'0 0.0
2018-Feb-21 19:58N 52°28' E 004°36'0 0.0
2018-Feb-21 19:22N 52°28' E 004°36'0 0.0
2018-Feb-21 18:58N 52°28' E 004°36'0 0.0
2018-Feb-21 18:22N 52°28' E 004°36'0 0.0
2018-Feb-21 17:58N 52°28' E 004°36'0 0.0
2018-Feb-21 17:25N 52°28' E 004°36'0 0.0
2018-Feb-21 16:58N 52°28' E 004°36'0 0.0
2018-Feb-21 16:25N 52°28' E 004°36'0 0.0
2018-Feb-21 15:55N 52°28' E 004°36'0 0.0
2018-Feb-21 15:28N 52°28' E 004°36'0 0.0
2018-Feb-21 14:58N 52°28' E 004°36'0 0.0
2018-Feb-21 14:28N 52°28' E 004°36'0 0.0
2018-Feb-21 13:58N 52°28' E 004°36'0 0.0
2018-Feb-21 13:28N 52°28' E 004°36'0 0.9
2018-Feb-21 13:01N 52°28' E 004°36'2 4.2
2018-Feb-21 12:31N 52°28' E 004°32'611.3
2018-Feb-21 12:01N 52°29' E 004°23'5 9.2
2018-Feb-21 11:31N 52°28' E 004°16'4 8.8
2018-Feb-21 11:01N 52°29' E 004°08'2 4.6
2018-Feb-21 10:30N 52°27' E 004°05'0 0.2
2018-Feb-21 09:56N 52°27' E 004°06'0 0.1
2018-Feb-21 09:29N 52°27' E 004°06'0 0.0
2018-Feb-21 08:59N 52°27' E 004°06'0 0.0
2018-Feb-21 08:29N 52°27' E 004°06'0 0.0
2018-Feb-21 07:59N 52°27' E 004°06'0 0.0
2018-Feb-21 07:29N 52°27' E 004°06'0 0.0
2018-Feb-21 06:59N 52°27' E 004°06'0 0.0
2018-Feb-21 06:29N 52°27' E 004°06'0 0.0
2018-Feb-21 05:59N 52°27' E 004°06'0 0.0
2018-Feb-21 05:26N 52°27' E 004°06'0 0.1
2018-Feb-21 04:59N 52°27' E 004°06'0 0.2
2018-Feb-21 04:29N 52°27' E 004°05'0 0.1
2018-Feb-21 03:59N 52°27' E 004°05'0 0.0
2018-Feb-21 03:26N 52°27' E 004°05'0 0.1
2018-Feb-21 02:59N 52°27' E 004°05'0 0.0
2018-Feb-21 02:26N 52°27' E 004°05'0 0.0
2018-Feb-21 01:56N 52°27' E 004°05'0 0.0
2018-Feb-21 01:29N 52°27' E 004°05'0 0.0
2018-Feb-21 00:59N 52°27' E 004°05'0 0.0
2018-Feb-21 00:29N 52°27' E 004°05'0 0.0
2018-Feb-20 23:59N 52°27' E 004°05'0 0.0
2018-Feb-20 23:26N 52°27' E 004°05'0 0.0
2018-Feb-20 22:59N 52°27' E 004°05'0 0.0
2018-Feb-20 22:26N 52°27' E 004°05'0 0.0
2018-Feb-20 21:59N 52°27' E 004°05'0 0.0
2018-Feb-20 21:29N 52°27' E 004°05'0 0.0
2018-Feb-20 20:59N 52°27' E 004°05'0 0.3
2018-Feb-20 20:29N 52°27' E 004°05'0 0.1
2018-Feb-20 19:59N 52°27' E 004°06'0 0.0
2018-Feb-20 19:29N 52°27' E 004°06'0 0.0
2018-Feb-20 18:59N 52°27' E 004°06'0 0.0
2018-Feb-20 18:29N 52°27' E 004°06'0 0.0
2018-Feb-20 17:59N 52°27' E 004°06'0 0.0
2018-Feb-20 17:29N 52°27' E 004°06'0 0.0
2018-Feb-20 16:59N 52°27' E 004°06'0 0.0
2018-Feb-20 16:26N 52°27' E 004°06'0 0.1
2018-Feb-20 15:59N 52°27' E 004°05'0 0.1
2018-Feb-20 15:29N 52°27' E 004°05'0 0.1
2018-Feb-20 14:59N 52°27' E 004°05'0 0.1
2018-Feb-20 14:29N 52°27' E 004°05'0 0.0
2018-Feb-20 13:59N 52°27' E 004°05'0 0.0
2018-Feb-20 13:29N 52°27' E 004°05'0 0.0
2018-Feb-20 12:59N 52°27' E 004°05'0 0.0
2018-Feb-20 12:29N 52°27' E 004°05'0 0.0
2018-Feb-20 11:59N 52°27' E 004°05'0 0.0
2018-Feb-20 11:29N 52°27' E 004°05'0 0.0
2018-Feb-20 10:59N 52°27' E 004°05'0 0.1
2018-Feb-20 10:29N 52°27' E 004°06'0 0.2
2018-Feb-20 09:59N 52°27' E 004°06'0 0.1
2018-Feb-20 09:29N 52°27' E 004°06'0 0.0
2018-Feb-20 09:00N 52°27' E 004°06'2 3.1
2018-Feb-20 08:30N 52°28' E 004°03'5 9.2
2018-Feb-20 08:00N 52°27' E 003°56'4 8.1
2018-Feb-20 07:29N 52°27' E 003°49'6 6.5
2018-Feb-20 06:35N 52°26' E 003°39'2 6.4
2018-Feb-20 06:13N 52°25' E 003°36'2 6.2
2018-Feb-20 05:57N 52°24' E 003°33'3 6.6
2018-Feb-20 05:26N 52°22' E 003°29'4 6.9
2018-Feb-20 04:52N 52°19' E 003°25'5 8.3
2018-Feb-20 04:17N 52°16' E 003°19'3 9.7
2018-Feb-20 03:59N 52°14' E 003°16'6 9.7
2018-Feb-20 03:22N 52°09' E 003°09'410.8
2018-Feb-20 03:00N 52°06' E 003°05'610.8
2018-Feb-20 02:29N 52°02' E 002°59'510.2
2018-Feb-20 01:59N 51°58' E 002°53'5 9.7
2018-Feb-20 01:29N 51°55' E 002°48'12 9.0
2018-Feb-20 00:12N 51°46' E 002°35'2 8.6
2018-Feb-20 00:00N 51°45' E 002°34'4 8.4
2018-Feb-19 23:31N 51°42' E 002°30'4 8.3
2018-Feb-19 23:00N 51°38' E 002°25'4 8.0
2018-Feb-19 22:28N 51°35' E 002°21'4 7.9
2018-Feb-19 22:00N 51°32' E 002°18'4 8.0
2018-Feb-19 21:30N 51°29' E 002°14'4 8.2
2018-Feb-19 21:00N 51°25' E 002°10'4 8.6
2018-Feb-19 20:30N 51°23' E 002°05'4 9.0
2018-Feb-19 20:00N 51°20' E 001°59'5 9.4
2018-Feb-19 19:30N 51°16' E 001°54'5 9.7
2018-Feb-19 19:00N 51°13' E 001°49'510.5
2018-Feb-19 18:30N 51°08' E 001°44'611.6
2018-Feb-19 18:00N 51°03' E 001°39'612.1
2018-Feb-19 17:30N 50°59' E 001°33'612.1
2018-Feb-19 16:59N 50°54' E 001°27'3412.2
2018-Feb-19 14:13N 50°28' E 000°52'312.5
2018-Feb-19 13:57N 50°28' E 000°47'1912.8
2018-Feb-19 12:30N 50°22' E 000°19'713.7
2018-Feb-19 12:00N 50°20' E 000°09'714.1
2018-Feb-19 11:30N 50°18' W 000°02'714.4
2018-Feb-19 11:00N 50°15' W 000°13'714.7
2018-Feb-19 10:30N 50°13' W 000°24'914.8
2018-Feb-19 09:54N 50°11' W 000°37'614.9
2018-Feb-19 09:28N 50°10' W 000°47'714.7
2018-Feb-19 09:01N 50°08' W 000°57'714.4
2018-Feb-19 08:31N 50°07' W 001°08'713.7
2018-Feb-19 08:00N 50°05' W 001°19'713.0
2018-Feb-19 07:30N 50°04' W 001°29'612.1
2018-Feb-19 07:00N 50°02' W 001°38'611.2
2018-Feb-19 06:30N 50°01' W 001°46'510.3
2018-Feb-19 06:00N 49°59' W 001°54'5 9.6
2018-Feb-19 05:30N 49°58' W 002°01'4 8.8
2018-Feb-19 05:00N 49°57' W 002°08'4 8.3
2018-Feb-19 04:30N 49°56' W 002°14'4 8.3
2018-Feb-19 04:00N 49°55' W 002°20'4 8.4
2018-Feb-19 03:30N 49°54' W 002°27'4 8.7
2018-Feb-19 03:00N 49°53' W 002°33'4 9.2
2018-Feb-19 02:31N 49°52' W 002°40'5 9.6
2018-Feb-19 02:00N 49°51' W 002°47'510.0
2018-Feb-19 01:30N 49°49' W 002°55'710.6
2018-Feb-19 00:51N 49°45' W 003°04'510.9
2018-Feb-19 00:25N 49°42' W 003°10'511.0
2018-Feb-19 00:00N 49°40' W 003°15'5311.8
2018-Feb-18 19:29N 49°11' W 004°25'1213.1
2018-Feb-18 18:35N 49°06' W 004°41'413.2
2018-Feb-18 18:17N 49°04' W 004°46'713.2
2018-Feb-18 17:47N 49°01' W 004°56'713.3
2018-Feb-18 17:16N 48°58' W 005°05'413.2
2018-Feb-18 16:58N 48°57' W 005°10'813.2
2018-Feb-18 16:20N 48°53' W 005°21'413.1
2018-Feb-18 16:00N 48°50' W 005°27'612.8
2018-Feb-18 15:30N 48°46' W 005°34'612.4
2018-Feb-18 15:00N 48°41' W 005°40'712.5
2018-Feb-18 14:28N 48°36' W 005°46'812.3
2018-Feb-18 13:49N 48°29' W 005°52'612.0
2018-Feb-18 13:20N 48°24' W 005°56'511.6
2018-Feb-18 12:56N 48°19' W 005°58'611.2
2018-Feb-18 12:26N 48°14' W 006°02'510.9
2018-Feb-18 12:00N 48°10' W 006°04'1210.5
2018-Feb-18 10:53N 47°59' W 006°12'41910.2
2018-Feb-16 17:39N 41°16' W 008°49'211.4
2018-Feb-16 17:30N 41°14' W 008°48'510.3
2018-Feb-16 17:00N 41°10' W 008°44'3 5.2
2018-Feb-16 16:30N 41°12' W 008°41'0 0.0
2018-Feb-16 15:57N 41°12' W 008°41'0 0.0
2018-Feb-16 15:27N 41°12' W 008°41'0 0.0
2018-Feb-16 15:00N 41°12' W 008°41'0 0.0
2018-Feb-16 14:30N 41°12' W 008°41'0 0.0
2018-Feb-16 14:00N 41°12' W 008°41'0 0.0
2018-Feb-16 13:24N 41°12' W 008°41'0 0.0
2018-Feb-16 12:57N 41°12' W 008°41'0 0.0
2018-Feb-16 12:30N 41°12' W 008°41'0 0.0
2018-Feb-16 12:00N 41°12' W 008°41'0 0.0
2018-Feb-16 11:30N 41°12' W 008°41'0 0.0
2018-Feb-16 11:00N 41°12' W 008°41'0 0.0
2018-Feb-16 10:30N 41°12' W 008°41'0 0.0
2018-Feb-16 10:00N 41°12' W 008°41'0 0.0
2018-Feb-16 09:30N 41°12' W 008°41'0 0.0
2018-Feb-16 09:00N 41°12' W 008°41'0 0.0
2018-Feb-16 08:30N 41°12' W 008°41'0 0.0
2018-Feb-16 08:00N 41°12' W 008°41'0 0.0
2018-Feb-16 07:30N 41°12' W 008°41'0 0.0
2018-Feb-16 07:00N 41°12' W 008°41'0 0.0
2018-Feb-16 06:30N 41°12' W 008°41'0 0.0
2018-Feb-16 06:00N 41°12' W 008°41'0 0.0
2018-Feb-16 05:30N 41°12' W 008°41'0 0.0
2018-Feb-16 04:54N 41°12' W 008°41'0 0.0
2018-Feb-16 04:30N 41°12' W 008°41'0 0.0
2018-Feb-16 04:00N 41°12' W 008°41'0 0.0
2018-Feb-16 03:30N 41°12' W 008°41'0 0.0
2018-Feb-16 03:00N 41°12' W 008°41'0 0.0
2018-Feb-16 02:30N 41°12' W 008°41'0 0.0
2018-Feb-16 02:00N 41°12' W 008°41'0 0.0
2018-Feb-16 01:30N 41°12' W 008°41'0 0.0
2018-Feb-16 00:57N 41°12' W 008°41'0 0.0
2018-Feb-16 00:30N 41°12' W 008°41'0 0.0
2018-Feb-16 00:00N 41°12' W 008°41'0 0.0
2018-Feb-15 23:30N 41°12' W 008°41'0 0.0
2018-Feb-15 22:57N 41°12' W 008°41'0 0.0
2018-Feb-15 22:30N 41°12' W 008°41'0 0.0
2018-Feb-15 22:00N 41°12' W 008°41'0 0.0
2018-Feb-15 21:21N 41°12' W 008°41'0 0.0
2018-Feb-15 21:00N 41°12' W 008°41'0 0.0
2018-Feb-15 20:30N 41°12' W 008°41'0 0.0
2018-Feb-15 20:00N 41°12' W 008°41'0 0.0
2018-Feb-15 19:30N 41°12' W 008°41'0 0.0
2018-Feb-15 19:00N 41°12' W 008°41'0 0.0
2018-Feb-15 18:27N 41°12' W 008°41'0 0.0
2018-Feb-15 18:00N 41°12' W 008°41'0 0.0
2018-Feb-15 17:27N 41°12' W 008°41'0 0.0
2018-Feb-15 17:00N 41°12' W 008°41'0 0.0
2018-Feb-15 16:30N 41°12' W 008°41'0 0.0
2018-Feb-15 16:00N 41°12' W 008°41'0 0.0
2018-Feb-15 15:30N 41°12' W 008°41'0 0.0
2018-Feb-15 15:00N 41°12' W 008°41'0 0.0
2018-Feb-15 14:30N 41°12' W 008°41'0 0.0
2018-Feb-15 13:57N 41°12' W 008°41'0 0.0
2018-Feb-15 13:30N 41°12' W 008°41'0 0.0
2018-Feb-15 13:00N 41°12' W 008°41'0 0.0
2018-Feb-15 12:30N 41°12' W 008°41'0 0.0
2018-Feb-15 11:57N 41°12' W 008°41'0 0.0
2018-Feb-15 11:30N 41°12' W 008°41'0 0.0
2018-Feb-15 11:00N 41°12' W 008°41'0 0.0
2018-Feb-15 10:30N 41°12' W 008°41'0 0.0
2018-Feb-15 10:00N 41°12' W 008°41'0 0.0
2018-Feb-15 09:30N 41°12' W 008°41'0 0.0
2018-Feb-15 09:00N 41°12' W 008°41'0 0.0
2018-Feb-15 08:30N 41°12' W 008°41'0 0.0
2018-Feb-15 07:57N 41°12' W 008°41'0 0.0
2018-Feb-15 07:30N 41°12' W 008°41'0 0.0
2018-Feb-15 07:00N 41°12' W 008°41'0 0.0
2018-Feb-15 06:24N 41°12' W 008°41'0 0.0
2018-Feb-15 06:00N 41°12' W 008°41'0 0.0
2018-Feb-15 05:30N 41°12' W 008°41'0 0.0
2018-Feb-15 05:00N 41°12' W 008°41'0 0.0
2018-Feb-15 04:30N 41°12' W 008°41'0 0.0
2018-Feb-15 04:00N 41°12' W 008°41'0 0.0
2018-Feb-15 03:30N 41°12' W 008°41'0 0.0
2018-Feb-15 03:00N 41°12' W 008°41'0 0.0
2018-Feb-15 02:30N 41°12' W 008°41'0 0.0
2018-Feb-15 02:00N 41°12' W 008°41'0 0.0
2018-Feb-15 01:30N 41°12' W 008°41'0 0.0
2018-Feb-15 01:00N 41°12' W 008°41'0 0.0
2018-Feb-15 00:30N 41°12' W 008°41'0 0.0
2018-Feb-15 00:00N 41°12' W 008°41'0 0.0
2018-Feb-14 23:30N 41°12' W 008°41'0 0.0
2018-Feb-14 23:00N 41°12' W 008°41'0 0.0
2018-Feb-14 22:30N 41°12' W 008°41'0 0.0
2018-Feb-14 22:00N 41°12' W 008°41'0 0.0
2018-Feb-14 21:30N 41°12' W 008°41'0 0.0
2018-Feb-14 21:00N 41°12' W 008°41'0 0.0
2018-Feb-14 20:30N 41°12' W 008°41'0 0.0
2018-Feb-14 20:00N 41°12' W 008°41'0 0.0
2018-Feb-14 19:27N 41°12' W 008°41'0 0.0
2018-Feb-14 19:00N 41°12' W 008°41'0 0.0
2018-Feb-14 18:30N 41°12' W 008°41'0 0.0
2018-Feb-14 18:00N 41°12' W 008°41'0 0.0
2018-Feb-14 17:30N 41°12' W 008°41'0 0.0
2018-Feb-14 17:00N 41°12' W 008°41'0 0.0
2018-Feb-14 16:30N 41°12' W 008°41'0 0.0
2018-Feb-14 16:00N 41°12' W 008°41'0 0.0
2018-Feb-14 15:30N 41°12' W 008°41'0 0.0
2018-Feb-14 15:00N 41°12' W 008°41'0 0.0
2018-Feb-14 14:27N 41°12' W 008°41'0 0.0
2018-Feb-14 14:00N 41°12' W 008°41'0 0.0
2018-Feb-14 13:30N 41°12' W 008°41'0 0.0
2018-Feb-14 13:00N 41°12' W 008°41'0 0.0
2018-Feb-14 12:30N 41°12' W 008°41'0 0.0
2018-Feb-14 12:00N 41°12' W 008°41'0 0.0
2018-Feb-14 11:30N 41°12' W 008°41'0 0.0
2018-Feb-14 11:00N 41°12' W 008°41'0 0.0
2018-Feb-14 10:30N 41°12' W 008°41'0 0.0
2018-Feb-14 10:00N 41°12' W 008°41'0 0.0
2018-Feb-14 09:30N 41°12' W 008°41'0 0.0
2018-Feb-14 09:00N 41°12' W 008°41'0 0.0
2018-Feb-14 08:30N 41°12' W 008°41'0 0.0
2018-Feb-14 08:00N 41°12' W 008°41'0 0.0
2018-Feb-14 07:30N 41°12' W 008°41'0 0.0
2018-Feb-14 07:00N 41°12' W 008°41'0 0.0
2018-Feb-14 06:30N 41°12' W 008°41'0 0.0
2018-Feb-14 06:00N 41°12' W 008°41'0 0.0
2018-Feb-14 05:30N 41°12' W 008°41'0 0.0
2018-Feb-14 05:00N 41°12' W 008°41'0 0.0
2018-Feb-14 04:30N 41°12' W 008°41'0 0.0
2018-Feb-14 04:00N 41°12' W 008°41'0 0.0
2018-Feb-14 03:30N 41°12' W 008°41'0 0.0
2018-Feb-14 03:00N 41°12' W 008°41'0 0.0
2018-Feb-14 02:27N 41°12' W 008°41'0 0.0
2018-Feb-14 02:00N 41°12' W 008°41'0 0.0
2018-Feb-14 01:30N 41°12' W 008°41'0 0.0
2018-Feb-14 01:00N 41°12' W 008°41'0 0.0
2018-Feb-14 00:30N 41°12' W 008°41'0 0.0
2018-Feb-14 00:00N 41°12' W 008°41'0 0.0
2018-Feb-13 23:30N 41°12' W 008°41'0 0.0
2018-Feb-13 23:00N 41°12' W 008°41'0 0.0
2018-Feb-13 22:30N 41°12' W 008°41'0 0.0
2018-Feb-13 22:00N 41°12' W 008°41'0 0.0
2018-Feb-13 21:30N 41°12' W 008°41'0 0.0
2018-Feb-13 21:00N 41°12' W 008°41'0 0.0
2018-Feb-13 20:30N 41°12' W 008°41'0 0.0
2018-Feb-13 20:00N 41°12' W 008°41'0 0.0
2018-Feb-13 19:30N 41°12' W 008°41'0 0.0
2018-Feb-13 19:00N 41°12' W 008°41'0 0.0
2018-Feb-13 18:30N 41°12' W 008°41'0 0.0
2018-Feb-13 18:00N 41°12' W 008°41'0 0.0
2018-Feb-13 17:30N 41°12' W 008°41'0 0.0
2018-Feb-13 17:00N 41°12' W 008°41'0 0.0
2018-Feb-13 16:30N 41°12' W 008°41'0 0.0
2018-Feb-13 16:00N 41°12' W 008°41'0 0.0
2018-Feb-13 15:30N 41°12' W 008°41'0 0.0
2018-Feb-13 15:00N 41°12' W 008°41'0 0.0
2018-Feb-13 14:30N 41°12' W 008°41'0 0.0
2018-Feb-13 14:00N 41°12' W 008°41'0 0.0
2018-Feb-13 13:30N 41°12' W 008°41'0 0.0
2018-Feb-13 13:00N 41°12' W 008°41'0 0.0
2018-Feb-13 12:30N 41°12' W 008°41'0 0.0
2018-Feb-13 12:00N 41°12' W 008°41'0 0.0
2018-Feb-13 11:30N 41°12' W 008°41'0 0.0
2018-Feb-13 11:00N 41°12' W 008°41'0 0.0
2018-Feb-13 10:30N 41°12' W 008°41'0 0.0
2018-Feb-13 10:00N 41°12' W 008°41'0 0.0
2018-Feb-13 09:30N 41°12' W 008°41'0 0.0
2018-Feb-13 09:00N 41°12' W 008°41'0 0.0
2018-Feb-13 08:30N 41°12' W 008°41'0 0.0
2018-Feb-13 08:00N 41°12' W 008°41'0 0.0
2018-Feb-13 07:30N 41°12' W 008°41'0 0.0
2018-Feb-13 07:00N 41°12' W 008°41'0 0.0
2018-Feb-13 06:30N 41°12' W 008°41'0 0.0
2018-Feb-13 06:00N 41°12' W 008°41'0 0.0
2018-Feb-13 05:30N 41°12' W 008°41'0 0.0
2018-Feb-13 05:00N 41°12' W 008°41'0 0.0
2018-Feb-13 04:30N 41°12' W 008°41'0 0.0
2018-Feb-13 04:00N 41°12' W 008°41'0 0.0
2018-Feb-13 03:30N 41°12' W 008°41'0 0.0
2018-Feb-13 03:00N 41°12' W 008°41'0 0.0
2018-Feb-13 02:30N 41°12' W 008°41'0 0.0
2018-Feb-13 02:00N 41°12' W 008°41'0 0.0
2018-Feb-13 01:30N 41°12' W 008°41'0 0.0
2018-Feb-13 01:00N 41°12' W 008°41'0 0.0
2018-Feb-13 00:30N 41°12' W 008°41'0 0.0
2018-Feb-13 00:00N 41°12' W 008°41'0 0.0
2018-Feb-12 23:30N 41°12' W 008°41'0 0.0
2018-Feb-12 23:00N 41°12' W 008°41'0 0.0
2018-Feb-12 22:30N 41°12' W 008°41'0 0.0
2018-Feb-12 22:00N 41°12' W 008°41'0 0.0
2018-Feb-12 21:30N 41°12' W 008°41'0 0.0
2018-Feb-12 21:00N 41°12' W 008°41'0 0.0
2018-Feb-12 20:30N 41°12' W 008°41'0 0.0
2018-Feb-12 20:00N 41°12' W 008°41'0 0.0
2018-Feb-12 19:30N 41°12' W 008°41'0 0.0
2018-Feb-12 19:00N 41°12' W 008°41'0 0.0
2018-Feb-12 18:30N 41°12' W 008°41'0 0.0
2018-Feb-12 18:00N 41°12' W 008°41'0 0.0
2018-Feb-12 17:30N 41°12' W 008°41'0 0.0
2018-Feb-12 17:00N 41°12' W 008°41'0 0.0
2018-Feb-12 16:27N 41°12' W 008°41'0 0.0
2018-Feb-12 16:00N 41°12' W 008°41'0 0.0
2018-Feb-12 15:18N 41°12' W 008°41'0 0.0
2018-Feb-12 15:00N 41°12' W 008°41'0 0.0
2018-Feb-12 14:30N 41°12' W 008°41'0 0.0
2018-Feb-12 14:00N 41°12' W 008°41'0 0.0
2018-Feb-12 13:30N 41°12' W 008°41'0 0.0
2018-Feb-12 13:00N 41°12' W 008°41'0 0.0
2018-Feb-12 12:30N 41°12' W 008°41'0 0.0
2018-Feb-12 12:00N 41°12' W 008°41'0 0.0
2018-Feb-12 11:30N 41°12' W 008°41'0 0.0
2018-Feb-12 11:00N 41°12' W 008°41'0 0.0
2018-Feb-12 10:30N 41°12' W 008°41'0 0.0
2018-Feb-12 10:00N 41°12' W 008°41'0 0.0
2018-Feb-12 09:30N 41°12' W 008°41'0 0.0
2018-Feb-12 09:00N 41°12' W 008°41'0 0.0
2018-Feb-12 08:30N 41°12' W 008°41'0 0.0
2018-Feb-12 08:00N 41°12' W 008°41'0 0.0
2018-Feb-12 07:30N 41°12' W 008°41'0 0.0
2018-Feb-12 07:00N 41°12' W 008°41'0 0.0
2018-Feb-12 06:30N 41°12' W 008°41'0 0.0
2018-Feb-12 06:00N 41°12' W 008°41'0 0.0
2018-Feb-12 05:30N 41°12' W 008°41'0 0.0
2018-Feb-12 05:00N 41°12' W 008°41'0 0.0
2018-Feb-12 04:30N 41°12' W 008°41'0 0.0
2018-Feb-12 04:00N 41°12' W 008°41'0 0.0
2018-Feb-12 03:30N 41°12' W 008°41'0 0.0
2018-Feb-12 03:00N 41°12' W 008°41'0 0.0
2018-Feb-12 02:30N 41°12' W 008°41'0 0.0
2018-Feb-12 02:00N 41°12' W 008°41'0 0.0
2018-Feb-12 01:30N 41°12' W 008°41'0 0.0
2018-Feb-12 01:00N 41°12' W 008°41'0 0.0
2018-Feb-12 00:30N 41°12' W 008°41'0 0.0
2018-Feb-12 00:00N 41°12' W 008°41'0 0.0
2018-Feb-11 23:30N 41°12' W 008°41'0 0.0
2018-Feb-11 23:00N 41°12' W 008°41'0 0.0
2018-Feb-11 22:30N 41°12' W 008°41'  

Dump ship's entire track history